createdAt,value
2022-09-23T00:00:09.942Z,3.80
2022-09-23T00:02:38.247Z,4.80
2022-09-23T00:05:10.540Z,3.57
2022-09-23T00:07:38.711Z,9.07
2022-09-23T00:10:08.066Z,5.93
2022-09-23T00:12:36.226Z,5.80
2022-09-23T00:15:04.391Z,11.23
2022-09-23T00:17:33.922Z,7.17
2022-09-23T00:20:02.356Z,5.60
2022-09-23T00:22:32.071Z,7.60
2022-09-23T00:25:00.376Z,6.50
2022-09-23T00:27:29.243Z,6.30
2022-09-23T00:29:57.428Z,5.13
2022-09-23T00:32:26.173Z,6.07
2022-09-23T00:34:54.362Z,4.90
2022-09-23T00:37:22.534Z,5.17
2022-09-23T00:39:52.095Z,10.97
2022-09-23T00:42:21.568Z,7.40
2022-09-23T00:44:50.550Z,8.43
2022-09-23T00:47:21.445Z,7.23
2022-09-23T00:49:54.099Z,5.80
2022-09-23T00:52:22.552Z,3.10
2022-09-23T00:54:53.249Z,11.10
2022-09-23T00:57:21.820Z,5.43
2022-09-23T00:59:50.110Z,5.53
2022-09-23T01:02:18.925Z,5.77
2022-09-23T01:04:47.411Z,7.43
2022-09-23T01:07:16.066Z,7.03
2022-09-23T01:09:44.954Z,5.10
2022-09-23T01:12:22.820Z,7.97
2022-09-23T01:14:54.309Z,7.03
2022-09-23T01:17:25.353Z,7.97
2022-09-23T01:20:07.454Z,5.80
2022-09-23T01:22:38.700Z,7.27
2022-09-23T01:25:34.823Z,7.27
2022-09-23T01:28:27.995Z,8.00
2022-09-23T01:31:00.246Z,6.20
2022-09-23T01:33:32.504Z,7.97
2022-09-23T01:36:06.342Z,8.10
2022-09-23T01:38:40.355Z,11.00
2022-09-23T01:41:17.741Z,3.13
2022-09-23T01:43:49.170Z,5.13
2022-09-23T01:46:20.648Z,7.03
2022-09-23T01:48:53.024Z,2.23
2022-09-23T01:51:23.961Z,5.00
2022-09-23T01:53:57.727Z,3.83
2022-09-23T01:56:28.896Z,3.53
2022-09-23T01:58:59.859Z,5.53
2022-09-23T02:01:31.730Z,4.00
2022-09-23T02:04:04.229Z,4.70
2022-09-23T02:06:35.032Z,3.10
2022-09-23T02:09:03.986Z,6.53
2022-09-23T02:11:32.055Z,4.73
2022-09-23T02:14:01.256Z,4.30
2022-09-23T02:16:33.132Z,3.40
2022-09-23T02:19:03.284Z,6.33
2022-09-23T02:21:37.435Z,7.37
2022-09-23T02:24:10.111Z,4.10
2022-09-23T02:26:39.905Z,5.10
2022-09-23T02:29:12.006Z,4.10
2022-09-23T02:31:42.897Z,6.37
2022-09-23T02:34:17.401Z,11.30
2022-09-23T02:36:50.307Z,3.83
2022-09-23T02:39:18.346Z,3.43
2022-09-23T02:41:50.219Z,6.70
2022-09-23T02:44:19.318Z,4.63
2022-09-23T02:46:48.826Z,3.40
2022-09-23T02:49:18.495Z,4.23
2022-09-23T02:51:46.833Z,2.53
2022-09-23T02:54:15.874Z,2.43
2022-09-23T02:56:44.135Z,2.67
2022-09-23T02:59:13.101Z,2.77
2022-09-23T03:01:45.331Z,1.20
2022-09-23T03:04:19.691Z,1.10
2022-09-23T03:06:52.883Z,3.70
2022-09-23T03:09:23.895Z,3.50
2022-09-23T03:11:54.551Z,1.10
2022-09-23T03:14:27.341Z,3.07
2022-09-23T03:16:58.435Z,4.30
2022-09-23T03:19:33.956Z,1.97
2022-09-23T03:22:05.801Z,1.23
2022-09-23T03:24:34.759Z,1.50
2022-09-23T03:27:21.919Z,1.13
2022-09-23T03:29:52.034Z,1.73
2022-09-23T03:32:25.023Z,0.97
2022-09-23T03:34:59.114Z,1.07
2022-09-23T03:37:30.460Z,1.90
2022-09-23T03:40:02.418Z,1.37
2022-09-23T03:42:33.282Z,1.40
2022-09-23T03:45:03.300Z,5.20
2022-09-23T03:47:32.500Z,4.43
2022-09-23T03:50:02.662Z,1.20
2022-09-23T03:52:31.718Z,1.40
2022-09-23T03:55:03.788Z,1.03
2022-09-23T03:57:33.084Z,1.20
2022-09-23T04:00:04.948Z,2.53
2022-09-23T04:02:33.910Z,2.77
2022-09-23T04:05:04.369Z,1.90
2022-09-23T04:07:33.057Z,7.30
2022-09-23T04:10:01.550Z,0.90
2022-09-23T04:12:30.739Z,3.03
2022-09-23T04:14:59.527Z,3.03
2022-09-23T04:17:31.494Z,1.10
2022-09-23T04:20:08.473Z,2.33
2022-09-23T04:22:39.313Z,2.10
2022-09-23T04:25:11.683Z,1.23
2022-09-23T04:27:40.662Z,1.10
2022-09-23T04:30:10.596Z,4.57
2022-09-23T04:32:47.511Z,1.13
2022-09-23T04:35:17.496Z,3.60
2022-09-23T04:37:47.104Z,1.13
2022-09-23T04:40:33.811Z,2.13
2022-09-23T04:43:05.478Z,5.07
2022-09-23T04:45:34.772Z,2.73
2022-09-23T04:48:20.045Z,1.10
2022-09-23T04:50:50.887Z,1.30
2022-09-23T04:53:19.880Z,1.10
2022-09-23T04:55:52.547Z,0.80
2022-09-23T04:58:23.503Z,1.60
2022-09-23T05:00:52.887Z,1.77
2022-09-23T05:03:36.338Z,2.87
2022-09-23T05:06:06.664Z,1.03
2022-09-23T05:08:34.934Z,1.13
2022-09-23T05:11:04.941Z,4.17
2022-09-23T05:13:36.513Z,2.63
2022-09-23T05:16:06.573Z,5.00
2022-09-23T05:18:46.974Z,0.90
2022-09-23T05:21:25.718Z,1.37
2022-09-23T05:23:55.553Z,1.90
2022-09-23T05:26:25.512Z,1.30
2022-09-23T05:32:12.998Z,3.23
2022-09-23T05:34:41.992Z,3.47
2022-09-23T05:37:12.217Z,1.37
2022-09-23T05:39:41.413Z,3.70
2022-09-23T05:45:13.810Z,3.03
2022-09-23T05:47:56.842Z,5.13
2022-09-23T05:50:26.443Z,1.20
2022-09-23T05:52:59.945Z,2.70
2022-09-23T06:07:15.552Z,1.40
2022-09-23T06:10:10.007Z,2.67
2022-09-23T06:12:38.690Z,1.33
2022-09-23T06:18:12.010Z,2.77
2022-09-23T06:20:57.385Z,3.23
2022-09-23T06:23:26.762Z,1.20
2022-09-23T06:26:04.783Z,5.63
2022-09-23T06:28:33.394Z,2.33
2022-09-23T06:34:48.202Z,3.00
2022-09-23T06:38:12.797Z,2.70
2022-09-23T06:40:53.935Z,10.03
2022-09-23T06:43:31.751Z,1.37
2022-09-23T06:46:01.360Z,1.30
2022-09-23T06:49:11.723Z,2.80
2022-09-23T06:52:16.563Z,1.63
2022-09-23T06:55:20.515Z,1.20
2022-09-23T06:58:00.433Z,1.20
2022-09-23T07:00:41.908Z,2.60
2022-09-23T07:09:58.362Z,1.20
2022-09-23T07:12:26.317Z,7.50
2022-09-23T07:14:54.353Z,4.93
2022-09-23T07:17:24.206Z,1.20
2022-09-23T07:19:52.335Z,3.67
2022-09-23T07:22:20.270Z,2.67
2022-09-23T07:24:48.298Z,1.60
2022-09-23T07:27:19.433Z,1.90
2022-09-23T07:29:48.972Z,1.13
2022-09-23T07:32:17.393Z,1.70
2022-09-23T07:34:47.216Z,1.47
2022-09-23T07:37:15.468Z,2.50
2022-09-23T07:39:43.961Z,1.30
2022-09-23T07:42:13.358Z,3.17
2022-09-23T07:44:42.061Z,4.63
2022-09-23T07:47:10.004Z,3.30
2022-09-23T07:49:38.427Z,1.50
2022-09-23T07:52:07.780Z,1.20
2022-09-23T07:54:35.945Z,3.40
2022-09-23T07:57:04.040Z,1.50
2022-09-23T07:59:31.942Z,2.13
2022-09-23T08:02:00.361Z,1.90
2022-09-23T08:04:29.961Z,2.17
2022-09-23T08:06:58.745Z,1.40
2022-09-23T08:09:29.104Z,1.57
2022-09-23T08:11:57.130Z,1.80
2022-09-23T08:14:25.075Z,1.43
2022-09-23T08:16:54.383Z,3.40
2022-09-23T08:19:22.313Z,3.23
2022-09-23T08:21:52.165Z,3.10
2022-09-23T08:24:21.073Z,1.73
2022-09-23T08:26:51.452Z,2.63
2022-09-23T08:29:19.485Z,4.10
2022-09-23T08:31:47.460Z,1.70
2022-09-23T08:34:15.390Z,5.27
2022-09-23T08:36:43.392Z,1.37
2022-09-23T08:39:13.466Z,0.80
2022-09-23T08:41:43.685Z,5.13
2022-09-23T08:44:15.076Z,3.50
2022-09-23T08:46:46.538Z,3.90
2022-09-23T08:49:18.451Z,0.80
2022-09-23T08:51:47.268Z,1.70
2022-09-23T08:54:15.323Z,1.07
2022-09-23T08:56:43.596Z,4.63
2022-09-23T08:59:15.586Z,2.10
2022-09-23T09:01:44.931Z,2.03
2022-09-23T09:04:17.660Z,5.37
2022-09-23T09:06:53.516Z,1.23
2022-09-23T09:09:24.931Z,1.73
2022-09-23T09:11:54.335Z,3.33
2022-09-23T09:14:25.973Z,2.77
2022-09-23T09:17:01.704Z,0.97
2022-09-23T09:19:55.295Z,2.23
2022-09-23T09:22:27.660Z,1.93
2022-09-23T09:24:55.853Z,3.13
2022-09-23T09:27:24.439Z,1.70
2022-09-23T09:29:54.663Z,2.97
2022-09-23T09:32:29.221Z,3.13
2022-09-23T09:34:58.712Z,5.40
2022-09-23T09:37:31.698Z,2.33
2022-09-23T09:39:59.827Z,3.60
2022-09-23T09:42:28.818Z,2.17
2022-09-23T09:44:59.821Z,2.43
2022-09-23T09:47:33.500Z,9.60
2022-09-23T09:50:06.108Z,6.27
2022-09-23T09:52:34.079Z,1.90
2022-09-23T10:08:10.306Z,2.60
2022-09-23T10:11:42.272Z,6.13
2022-09-23T10:14:58.933Z,5.53
2022-09-23T10:21:56.519Z,5.30
2022-09-23T10:33:03.582Z,3.23
2022-09-23T10:46:54.934Z,2.87
2022-09-23T10:50:21.271Z,2.77
2022-09-23T10:53:23.353Z,4.07
2022-09-23T10:56:29.396Z,3.37
2022-09-23T11:03:16.882Z,4.13
2022-09-23T11:06:29.680Z,1.70
2022-09-23T11:09:20.329Z,3.13
2022-09-23T11:12:31.305Z,3.10
2022-09-23T11:25:45.848Z,1.67
2022-09-23T11:29:06.189Z,1.48
2022-09-23T11:32:34.328Z,1.42
2022-09-23T11:35:28.512Z,2.55
2022-09-23T11:38:31.209Z,1.40
2022-09-23T11:44:23.965Z,3.17
2022-09-23T11:47:28.907Z,2.45
2022-09-23T11:54:00.574Z,2.15
2022-09-23T11:57:31.216Z,1.30
2022-09-23T12:04:30.951Z,3.20
2022-09-23T12:07:14.806Z,2.80
2022-09-23T12:13:51.715Z,1.15
2022-09-23T12:21:38.797Z,4.68
2022-09-23T12:24:50.967Z,1.30
2022-09-23T12:33:38.775Z,1.75
2022-09-23T12:36:07.653Z,0.60
2022-09-23T12:38:36.449Z,1.65
2022-09-23T12:41:08.225Z,1.02
2022-09-23T12:43:37.565Z,0.73
2022-09-23T12:46:21.242Z,1.42
2022-09-23T12:48:59.403Z,0.80
2022-09-23T12:51:27.485Z,0.90
2022-09-23T12:54:14.264Z,2.15
2022-09-23T12:57:01.842Z,2.22
2022-09-23T12:59:32.702Z,2.15
2022-09-23T13:02:22.286Z,2.10
2022-09-23T13:05:14.273Z,1.52
2022-09-23T13:07:44.017Z,1.45
2022-09-23T13:10:15.554Z,1.45
2022-09-23T13:12:43.676Z,2.25
2022-09-23T13:15:26.761Z,2.42
2022-09-23T13:17:54.702Z,0.77
2022-09-23T13:20:38.232Z,1.40
2022-09-23T13:23:24.278Z,1.05
2022-09-23T13:25:52.593Z,1.65
2022-09-23T13:28:30.953Z,2.05
2022-09-23T13:31:00.780Z,1.05
2022-09-23T13:33:32.678Z,1.05
2022-09-23T13:36:04.203Z,2.63
2022-09-23T13:38:34.047Z,1.65
2022-09-23T13:41:03.470Z,2.25
2022-09-23T13:43:34.709Z,1.83
2022-09-23T13:46:06.671Z,1.23
2022-09-23T13:48:34.598Z,3.10
2022-09-23T13:51:10.177Z,3.05
2022-09-23T13:53:38.083Z,2.08
2022-09-23T13:56:07.443Z,2.95
2022-09-23T13:58:35.961Z,2.75
2022-09-23T14:01:05.759Z,1.48
2022-09-23T14:03:37.193Z,2.75
2022-09-23T14:06:06.955Z,2.65
2022-09-23T14:08:35.017Z,6.03
2022-09-23T14:11:06.292Z,3.22
2022-09-23T14:13:41.778Z,2.03
2022-09-23T14:16:12.764Z,2.17
2022-09-23T14:18:41.326Z,3.30
2022-09-23T14:21:27.356Z,2.40
2022-09-23T14:23:55.429Z,2.72
2022-09-23T14:26:23.462Z,3.05
2022-09-23T14:28:51.381Z,3.80
2022-09-23T14:31:20.680Z,6.20
2022-09-23T14:33:48.643Z,2.67
2022-09-23T14:36:31.400Z,2.75
2022-09-23T14:39:06.249Z,5.82
2022-09-23T14:41:36.087Z,4.95
2022-09-23T14:44:04.291Z,1.52
2022-09-23T14:46:35.005Z,3.35
2022-09-23T14:49:05.739Z,4.55
2022-09-23T14:51:37.123Z,5.63
2022-09-23T14:54:38.245Z,1.25
2022-09-23T14:57:26.572Z,3.40
2022-09-23T14:59:56.017Z,4.22
2022-09-23T15:02:33.666Z,1.27
2022-09-23T15:05:16.048Z,3.45
2022-09-23T15:07:45.110Z,4.50
2022-09-23T15:10:19.940Z,4.03
2022-09-23T15:12:50.477Z,3.67
2022-09-23T15:15:18.665Z,5.32
2022-09-23T15:17:48.052Z,2.88
2022-09-23T15:20:21.094Z,2.08
2022-09-23T15:22:50.013Z,2.53
2022-09-23T15:25:19.944Z,2.42
2022-09-23T15:28:02.415Z,7.40
2022-09-23T15:30:30.500Z,3.03
2022-09-23T15:32:59.967Z,3.80
2022-09-23T15:35:27.965Z,2.95
2022-09-23T15:37:58.340Z,3.50
2022-09-23T15:40:27.579Z,3.35
2022-09-23T15:42:56.813Z,3.97
2022-09-23T15:45:29.925Z,2.03
2022-09-23T15:48:00.872Z,2.67
2022-09-23T15:50:30.232Z,2.33
2022-09-23T15:52:59.334Z,2.75
2022-09-23T15:55:27.298Z,6.28
2022-09-23T15:57:55.235Z,3.05
2022-09-23T16:00:23.143Z,5.82
2022-09-23T16:02:51.063Z,2.75
2022-09-23T16:05:23.809Z,2.33
2022-09-23T16:07:53.416Z,4.70
2022-09-23T16:10:22.310Z,3.17
2022-09-23T16:12:50.228Z,4.80
2022-09-23T16:15:19.605Z,5.57
2022-09-23T16:17:47.684Z,5.82
2022-09-23T16:20:17.707Z,6.07
2022-09-23T16:22:47.919Z,3.42
2022-09-23T16:25:16.051Z,3.60
2022-09-23T16:27:44.538Z,9.10
2022-09-23T16:30:12.976Z,6.10
2022-09-23T16:32:40.978Z,4.10
2022-09-23T16:35:10.313Z,2.67
2022-09-23T16:37:38.216Z,2.08
2022-09-23T16:40:09.876Z,5.47
2022-09-23T16:42:38.340Z,7.97
2022-09-23T16:45:07.365Z,1.92
2022-09-23T16:47:35.394Z,4.63
2022-09-23T16:50:03.388Z,5.37
2022-09-23T16:52:31.397Z,2.07
2022-09-23T16:54:59.350Z,3.83
2022-09-23T16:57:30.004Z,3.27
2022-09-23T17:00:15.431Z,11.80
2022-09-23T17:03:00.901Z,5.90
2022-09-23T17:05:28.866Z,3.50
2022-09-23T17:07:57.577Z,2.83
2022-09-23T17:10:25.688Z,4.70
2022-09-23T17:12:55.003Z,3.30
2022-09-23T17:15:22.920Z,3.40
2022-09-23T17:17:52.012Z,1.30
2022-09-23T17:20:20.151Z,1.20
2022-09-23T17:22:48.267Z,3.03
2022-09-23T17:25:16.590Z,2.30
2022-09-23T17:27:46.410Z,4.53
2022-09-23T17:30:15.918Z,4.17
2022-09-23T17:32:43.824Z,4.03
2022-09-23T17:35:11.802Z,3.17
2022-09-23T17:37:39.791Z,2.57
2022-09-23T17:40:08.823Z,6.57
2022-09-23T17:42:41.061Z,2.50
2022-09-23T17:45:10.382Z,4.13
2022-09-23T17:47:41.938Z,2.13
2022-09-23T17:50:10.364Z,2.23
2022-09-23T17:52:38.224Z,1.53
2022-09-23T17:55:07.289Z,3.50
2022-09-23T17:57:35.466Z,1.70
2022-09-23T18:00:03.864Z,2.80
2022-09-23T18:02:31.840Z,3.60
2022-09-23T18:05:01.216Z,5.07
2022-09-23T18:07:29.162Z,1.93
2022-09-23T18:09:58.172Z,3.73
2022-09-23T18:12:26.232Z,2.17
2022-09-23T18:14:54.634Z,3.30
2022-09-23T18:17:22.999Z,2.47
2022-09-23T18:19:50.999Z,6.43
2022-09-23T18:22:20.403Z,7.00
2022-09-23T18:24:48.409Z,4.53
2022-09-23T18:27:16.489Z,1.30
2022-09-23T18:29:44.446Z,3.47
2022-09-23T18:32:14.337Z,3.93
2022-09-23T18:34:42.645Z,4.03
2022-09-23T18:37:15.721Z,5.43
2022-09-23T18:39:45.593Z,2.97
2022-09-23T18:42:13.651Z,3.53
2022-09-23T18:44:41.838Z,3.60
2022-09-23T18:47:29.773Z,5.73
2022-09-23T18:50:15.215Z,2.77
2022-09-23T18:52:43.172Z,6.40
2022-09-23T18:55:12.699Z,5.97
2022-09-23T18:57:41.277Z,1.80
2022-09-23T19:00:12.622Z,6.43
2022-09-23T19:02:43.600Z,1.87
2022-09-23T19:05:11.638Z,2.10
2022-09-23T19:07:39.547Z,5.03
2022-09-23T19:10:08.502Z,15.73
2022-09-23T19:12:37.853Z,21.77
2022-09-23T19:15:06.235Z,18.30
2022-09-23T19:17:34.554Z,5.73
2022-09-23T19:20:03.165Z,5.50
2022-09-23T19:22:32.762Z,5.00
2022-09-23T19:25:00.662Z,6.90
2022-09-23T19:27:28.653Z,2.67
2022-09-23T19:29:58.086Z,4.87
2022-09-23T19:32:26.785Z,1.97
2022-09-23T19:34:54.731Z,2.40
2022-09-23T19:37:23.150Z,1.90
2022-09-23T19:39:51.157Z,5.10
2022-09-23T19:42:19.047Z,1.80
2022-09-23T19:44:47.176Z,0.77
2022-09-23T19:47:17.554Z,1.63
2022-09-23T19:49:45.493Z,19.77
2022-09-23T19:52:13.366Z,35.37
2022-09-23T19:54:41.704Z,17.97
2022-09-23T19:57:10.159Z,13.53
2022-09-23T19:59:40.267Z,12.80
2022-09-23T20:02:10.297Z,4.73
2022-09-23T20:04:39.939Z,33.20
2022-09-23T20:07:08.990Z,28.13
2022-09-23T20:09:36.965Z,16.50
2022-09-23T20:12:05.046Z,20.93
2022-09-23T20:14:33.084Z,8.03
2022-09-23T20:17:02.205Z,10.30
2022-09-23T20:19:30.335Z,6.57
2022-09-23T20:22:17.381Z,14.47
2022-09-23T20:24:45.318Z,10.43
2022-09-23T20:27:12.386Z,11.93
2022-09-23T20:29:40.289Z,4.93
2022-09-23T20:32:09.817Z,11.73
2022-09-23T20:34:37.705Z,2.90
2022-09-23T20:37:07.082Z,7.97
2022-09-23T20:39:44.050Z,5.20
2022-09-23T20:42:13.559Z,4.60
2022-09-23T20:44:43.217Z,5.93
2022-09-23T20:47:13.336Z,7.93
2022-09-23T20:49:42.955Z,2.00
2022-09-23T20:52:12.728Z,7.10
2022-09-23T20:54:40.947Z,18.43
2022-09-23T20:57:09.207Z,7.87
2022-09-23T20:59:37.364Z,6.70
2022-09-23T21:02:05.356Z,3.03
2022-09-23T21:04:34.911Z,3.33
2022-09-23T21:07:02.837Z,4.60
2022-09-23T21:09:32.195Z,4.07
2022-09-23T21:12:00.156Z,2.33
2022-09-23T21:14:28.090Z,4.20
2022-09-23T21:16:57.287Z,3.67
2022-09-23T21:19:26.605Z,4.67
2022-09-23T21:21:54.881Z,1.53
2022-09-23T21:25:03.504Z,1.07
2022-09-23T21:27:12.178Z,2.23
2022-09-23T21:29:40.327Z,1.73
2022-09-23T21:32:08.290Z,2.47
2022-09-23T21:34:36.350Z,2.47
2022-09-23T21:37:04.357Z,1.90
2022-09-23T21:39:32.248Z,4.13
2022-09-23T21:42:00.210Z,1.87
2022-09-23T21:44:31.806Z,5.30
2022-09-23T21:46:59.917Z,2.50
2022-09-23T21:49:32.235Z,6.60
2022-09-23T21:52:00.784Z,2.37
2022-09-23T21:54:29.664Z,6.43
2022-09-23T21:56:57.584Z,3.23
2022-09-23T21:59:25.609Z,4.53
2022-09-23T22:01:54.911Z,1.90
2022-09-23T22:04:22.897Z,3.07
2022-09-23T22:06:50.950Z,1.10
2022-09-23T22:09:20.047Z,1.30
2022-09-23T22:12:07.884Z,4.27
2022-09-23T22:14:35.814Z,3.37
2022-09-23T22:17:05.366Z,5.20
2022-09-23T22:19:35.211Z,4.37
2022-09-23T22:22:03.655Z,6.47
2022-09-23T22:24:33.534Z,5.50
2022-09-23T22:27:01.543Z,2.47
2022-09-23T22:29:46.942Z,5.10
2022-09-23T22:32:52.838Z,2.50
2022-09-23T22:35:22.491Z,2.47
2022-09-23T22:37:50.585Z,3.80
2022-09-23T22:40:18.696Z,1.80
2022-09-23T22:42:46.989Z,1.93
2022-09-23T22:45:15.086Z,1.10
2022-09-23T22:47:45.734Z,2.23
2022-09-23T22:50:15.124Z,4.03
2022-09-23T22:52:43.270Z,5.73
2022-09-23T22:55:11.161Z,7.27
2022-09-23T22:57:39.106Z,5.43
2022-09-23T23:00:07.897Z,2.27
2022-09-23T23:02:35.865Z,3.87
2022-09-23T23:05:05.715Z,3.50
2022-09-23T23:07:36.321Z,2.87
2022-09-23T23:10:04.743Z,1.90
2022-09-23T23:12:33.565Z,6.10
2022-09-23T23:15:01.631Z,4.30
2022-09-23T23:17:29.843Z,3.37
2022-09-23T23:19:57.983Z,3.50
2022-09-23T23:22:29.539Z,1.73
2022-09-23T23:24:57.737Z,5.27
2022-09-23T23:27:26.073Z,6.57
2022-09-23T23:29:54.120Z,2.70
2022-09-23T23:32:22.066Z,4.73
2022-09-23T23:34:51.531Z,3.43
2022-09-23T23:37:21.053Z,3.13
2022-09-23T23:39:51.454Z,3.33
2022-09-23T23:42:19.534Z,3.70
2022-09-23T23:44:47.919Z,3.77
2022-09-23T23:47:15.847Z,3.67
2022-09-23T23:49:43.754Z,4.67
2022-09-23T23:52:13.479Z,7.47
2022-09-23T23:54:41.678Z,3.50
2022-09-23T23:57:11.249Z,2.13
2022-09-23T23:59:39.149Z,2.47
